Time;durP1;ratioP1;P1;durP2;ratioP2;P2;SDS_P1;SDS_P2;PMS_P1;PMS_P2;Temp;Humidity;BMP_temperature;BMP_pressure;BME280_temperature;BME280_humidity;BME280_pressure;Samples;Min_cycle;Max_cycle;Signal;HPM_P1;HPM_P2
2022/11/25 00:00:50;;;;;;;;;;;;;;;3.33;100.00;100977.53;2088068;28;39480;-70
2022/11/25 00:01:51;;;;;;;;;;;;;;;3.34;100.00;100975.75;2088404;28;32810;-70
2022/11/25 00:02:53;;;;;;;;;;;;;;;3.34;100.00;100975.75;2088096;28;34469;-71
2022/11/25 00:03:55;;;;;;;;;;;;;;;3.42;100.00;100985.53;2088050;28;37926;-71
2022/11/25 00:04:57;;;;;;;;;;;;;;;3.37;100.00;100981.94;2088058;28;31189;-71
2022/11/25 00:06:18;;;;;;;;;;;;;;;3.46;100.00;100977.59;2088735;28;39574;-71
2022/11/25 00:07:19;;;;;;;;;;;;;;;3.44;100.00;100980.25;2088987;28;20802;-71
2022/11/25 00:08:21;;;;;;;;;;;;;;;3.39;100.00;100968.72;2088191;28;39600;-71
2022/11/25 00:09:22;;;;;;;;;;;;;;;3.38;100.00;100973.16;2088079;28;39155;-71
2022/11/25 00:10:24;;;;;;;;;;;;;;;3.38;100.00;100978.44;2088671;28;29470;-71
2022/11/25 00:11:26;;;;;;;;;;;;;;;3.38;100.00;100973.16;2088271;28;31650;-71
2022/11/25 00:12:28;;;;;;;;;;;;;;;3.40;100.00;100973.16;2087658;28;36840;-71
2022/11/25 00:13:32;;;;;;;;;;;;;;;3.37;100.00;100974.00;2088083;28;40583;-70
2022/11/25 00:14:34;;;;;;;;;;;;;;;3.33;100.00;100974.88;2089498;28;37816;-71
2022/11/25 00:15:35;;;;;;;;;;;;;;;3.36;100.00;100969.63;2089546;28;31871;-71
2022/11/25 00:16:37;;;;;;;;;;;;;;;3.40;100.00;100971.41;2089636;28;35096;-71
2022/11/25 00:17:41;;;;;;;;;;;;;;;3.38;100.00;100962.56;2089124;28;31573;-71
2022/11/25 00:18:45;;;;;;;;;;;;;;;3.37;100.00;100971.38;2088943;28;33452;-71
2022/11/25 00:19:47;;;;;;;;;;;;;;;3.38;100.00;100967.84;2088643;28;35795;-71
2022/11/25 00:20:49;;;;;;;;;;;;;;;3.40;100.00;100968.75;2089684;28;31625;-71
2022/11/25 00:21:50;;;;;;;;;;;;;;;3.43;100.00;100959.97;2095253;28;29655;-71
2022/11/25 00:22:52;;;;;;;;;;;;;;;3.43;100.00;100970.56;2097565;28;38972;-70
2022/11/25 00:23:56;;;;;;;;;;;;;;;3.45;100.00;100971.44;2097783;28;29947;-71
2022/11/25 00:24:58;;;;;;;;;;;;;;;3.41;100.00;100973.19;2097805;28;36968;-70
2022/11/25 00:26:10;;;;;;;;;;;;;;;3.46;100.00;100973.19;2098008;28;31176;-70
2022/11/25 00:27:11;;;;;;;;;;;;;;;3.46;100.00;100972.31;2097521;28;39660;-72
2022/11/25 00:28:13;;;;;;;;;;;;;;;3.48;100.00;100957.31;2097959;28;31350;-71
2022/11/25 00:29:14;;;;;;;;;;;;;;;3.48;100.00;100967.91;2088798;28;30953;-71
2022/11/25 00:30:16;;;;;;;;;;;;;;;3.43;100.00;100971.44;2081122;28;20800;-71
2022/11/25 00:31:24;;;;;;;;;;;;;;;3.43;100.00;100970.56;2088553;28;39218;-71
2022/11/25 00:32:25;;;;;;;;;;;;;;;3.42;100.00;100969.63;2098779;28;19916;-71
2022/11/25 00:33:27;;;;;;;;;;;;;;;3.42;100.00;100968.75;2088890;28;28982;-71
2022/11/25 00:34:28;;;;;;;;;;;;;;;3.42;100.00;100969.63;2089083;28;25926;-71
2022/11/25 00:35:30;;;;;;;;;;;;;;;3.44;100.00;100965.25;2098021;28;28346;-71
2022/11/25 00:36:35;;;;;;;;;;;;;;;3.50;100.00;100967.06;2098019;28;28874;-71
2022/11/25 00:37:36;;;;;;;;;;;;;;;3.48;100.00;100966.16;2097323;28;36395;-71
2022/11/25 00:38:38;;;;;;;;;;;;;;;3.50;100.00;100959.13;2089040;28;19929;-71
2022/11/25 00:39:39;;;;;;;;;;;;;;;3.46;100.00;100952.03;2088803;28;30624;-71
2022/11/25 00:44:34;;;;;;;;;;;;;;;3.49;100.00;100953.81;2098077;28;26209;-72
2022/11/25 00:44:48;;;;;;;;;;;;;;;3.55;100.00;100960.03;2097767;28;27833;-71
2022/11/25 00:45:50;;;;;;;;;;;;;;;3.53;100.00;100955.59;2097734;28;36810;-71
2022/11/25 00:46:52;;;;;;;;;;;;;;;3.53;100.00;100956.47;2098102;28;24137;-71
2022/11/25 00:47:53;;;;;;;;;;;;;;;3.56;100.00;100958.28;2097046;28;31426;-71
2022/11/25 00:48:55;;;;;;;;;;;;;;;3.53;100.00;100951.19;2097710;28;19921;-71
2022/11/25 00:49:56;;;;;;;;;;;;;;;3.56;100.00;100955.63;2097556;28;32173;-71
2022/11/25 00:51:00;;;;;;;;;;;;;;;3.55;100.00;100956.50;2097747;28;24379;-71
2022/11/25 00:52:03;;;;;;;;;;;;;;;3.61;100.00;100953.91;2097303;28;32911;-71
2022/11/25 00:53:05;;;;;;;;;;;;;;;3.59;100.00;100960.94;2096971;28;33989;-71
2022/11/25 00:54:06;;;;;;;;;;;;;;;3.59;100.00;100953.00;2097514;28;19994;-71
2022/11/25 00:55:08;;;;;;;;;;;;;;;3.56;100.00;100951.22;2088712;28;22475;-71
2022/11/25 00:56:12;;;;;;;;;;;;;;;3.60;100.00;100954.75;2089265;28;26553;-72
2022/11/25 00:57:20;;;;;;;;;;;;;;;3.60;100.00;100949.47;2096966;28;34972;-72
2022/11/25 00:58:21;;;;;;;;;;;;;;;3.60;100.00;100949.47;2098024;28;19909;-72
2022/11/25 00:59:25;;;;;;;;;;;;;;;3.61;100.00;100945.97;2097639;28;25148;-72
2022/11/25 01:00:27;;;;;;;;;;;;;;;3.58;100.00;100953.88;2097631;28;31584;-72
2022/11/25 01:01:28;;;;;;;;;;;;;;;3.61;100.00;100948.59;2088887;28;21974;-72
2022/11/25 01:02:30;;;;;;;;;;;;;;;3.59;100.00;100950.34;2088799;28;31751;-72
2022/11/25 01:03:32;;;;;;;;;;;;;;;3.59;100.00;100945.94;2097363;28;25566;-72
2022/11/25 01:04:34;;;;;;;;;;;;;;;3.58;100.00;100945.94;2088560;28;34947;-72
2022/11/25 01:05:35;;;;;;;;;;;;;;;3.58;100.00;100943.28;2089342;28;20037;-71
2022/11/25 01:06:37;;;;;;;;;;;;;;;3.65;100.00;100945.09;2097377;28;30963;-72
2022/11/25 01:07:39;;;;;;;;;;;;;;;3.65;100.00;100936.28;2097127;28;27251;-72
2022/11/25 01:08:43;;;;;;;;;;;;;;;3.67;100.00;100938.03;2097209;28;26584;-72
2022/11/25 01:09:45;;;;;;;;;;;;;;;3.65;100.00;100937.16;2097578;28;27745;-72
2022/11/25 01:10:46;;;;;;;;;;;;;;;3.68;100.00;100933.59;2098270;28;20959;-72
2022/11/25 01:11:51;;;;;;;;;;;;;;;3.66;100.00;100944.22;2088690;28;29916;-72
2022/11/25 01:12:52;;;;;;;;;;;;;;;3.66;100.00;100948.59;2089532;28;20705;-72
2022/11/25 01:13:55;;;;;;;;;;;;;;;3.68;100.00;100942.47;2097942;28;19927;-72
2022/11/25 01:15:04;;;;;;;;;;;;;;;3.67;100.00;100945.09;2097265;28;25360;-72
2022/11/25 01:16:14;;;;;;;;;;;;;;;3.64;100.00;100945.94;2098362;28;19917;-72
2022/11/25 01:17:18;;;;;;;;;;;;;;;3.64;100.00;100948.59;2088840;28;31194;-72
2022/11/25 01:18:19;;;;;;;;;;;;;;;3.63;100.00;100942.44;2080681;28;29274;-72
2022/11/25 01:19:21;;;;;;;;;;;;;;;3.65;100.00;100939.78;2088514;28;22041;-72
2022/11/25 01:20:23;;;;;;;;;;;;;;;3.71;100.00;100945.09;2096689;28;25324;-74
2022/11/25 01:21:29;;;;;;;;;;;;;;;3.71;100.00;100945.09;2088922;28;20774;-72
2022/11/25 01:22:31;;;;;;;;;;;;;;;3.71;100.00;100933.63;2088844;28;35687;-71
2022/11/25 01:23:37;;;;;;;;;;;;;;;3.72;100.00;100941.59;2097193;28;19995;-72
2022/11/25 01:24:38;;;;;;;;;;;;;;;3.79;100.00;100935.44;2097565;28;19934;-72
2022/11/25 01:25:40;;;;;;;;;;;;;;;3.76;100.00;100938.06;2095947;28;25318;-72
2022/11/25 01:26:43;;;;;;;;;;;;;;;3.76;100.00;100942.50;2088500;28;32300;-72
2022/11/25 01:27:44;;;;;;;;;;;;;;;3.74;100.00;100942.47;2088789;28;31085;-71
2022/11/25 01:28:47;;;;;;;;;;;;;;;3.73;100.00;100939.81;2096954;28;28041;-72
2022/11/25 01:29:48;;;;;;;;;;;;;;;3.69;100.00;100946.88;2097281;28;20014;-72
2022/11/25 01:30:59;;;;;;;;;;;;;;;3.72;100.00;100931.00;2097122;28;27274;-73
2022/11/25 01:32:01;;;;;;;;;;;;;;;3.73;100.00;100943.38;2088576;28;26778;-72
2022/11/25 01:33:02;;;;;;;;;;;;;;;3.74;100.00;100934.53;2088860;28;30286;-71
2022/11/25 01:34:10;;;;;;;;;;;;;;;3.76;100.00;100932.78;2096913;28;23454;-72
2022/11/25 01:35:12;;;;;;;;;;;;;;;3.72;100.00;100940.72;2097862;28;20157;-71
2022/11/25 01:36:16;;;;;;;;;;;;;;;3.73;100.00;100937.16;2097083;28;39420;-73
2022/11/25 01:37:17;;;;;;;;;;;;;;;3.74;100.00;100931.88;2097265;28;19924;-73
2022/11/25 01:38:19;;;;;;;;;;;;;;;3.72;100.00;100935.41;2096743;28;20784;-71
2022/11/25 01:39:22;;;;;;;;;;;;;;;3.74;100.00;100939.84;2088091;28;37305;-71
2022/11/25 01:40:30;;;;;;;;;;;;;;;3.70;100.00;100940.69;2089887;28;20028;-72
2022/11/25 01:41:33;;;;;;;;;;;;;;;3.77;100.00;100939.84;2088330;28;32594;-72
2022/11/25 01:42:50;;;;;;;;;;;;;;;3.76;100.00;100943.38;2080215;28;35888;-72
2022/11/25 01:44:28;;;;;;;;;;;;;;;3.77;100.00;100939.84;2082965;28;19921;-72
2022/11/25 01:45:35;;;;;;;;;;;;;;;3.77;100.00;100939.84;2076963;28;19929;-71
2022/11/25 01:46:45;;;;;;;;;;;;;;;3.76;100.00;100942.50;2094586;28;39160;-72
2022/11/25 01:47:48;;;;;;;;;;;;;;;3.79;100.00;100932.81;2096993;28;30616;-72
2022/11/25 01:48:56;;;;;;;;;;;;;;;3.79;100.00;100932.81;2087627;28;29565;-72
2022/11/25 01:50:04;;;;;;;;;;;;;;;3.81;100.00;100931.03;2089723;28;20816;-72
2022/11/25 01:51:20;;;;;;;;;;;;;;;3.87;100.00;100929.31;2087961;28;26714;-72
2022/11/25 01:52:44;;;;;;;;;;;;;;;3.89;100.00;100922.25;2091095;28;30502;-71
2022/11/25 01:53:47;;;;;;;;;;;;;;;3.95;100.00;100931.09;2097043;28;22490;-72
2022/11/25 01:54:58;;;;;;;;;;;;;;;3.97;100.00;100931.13;2096941;28;19921;-72
2022/11/25 01:56:02;;;;;;;;;;;;;;;3.99;100.00;100930.22;2097238;28;32233;-70
2022/11/25 01:57:14;;;;;;;;;;;;;;;4.01;100.00;100927.59;2096956;28;19968;-72
2022/11/25 01:58:25;;;;;;;;;;;;;;;4.02;100.00;100921.44;2088777;28;20024;-71
2022/11/25 01:59:31;;;;;;;;;;;;;;;4.07;100.00;100921.44;2081766;28;19995;-72
2022/11/25 02:00:33;;;;;;;;;;;;;;;4.09;100.00;100920.56;2089670;28;19925;-72
2022/11/25 02:01:34;;;;;;;;;;;;;;;4.07;100.00;100919.66;2097582;28;28520;-71
2022/11/25 02:02:36;;;;;;;;;;;;;;;4.09;100.00;100925.88;2096793;28;26076;-71
2022/11/25 02:03:41;;;;;;;;;;;;;;;4.11;100.00;100924.09;2096435;28;28936;-71
2022/11/25 02:04:47;;;;;;;;;;;;;;;4.17;100.00;100928.53;2098583;28;20015;-72
2022/11/25 02:05:58;;;;;;;;;;;;;;;4.16;100.00;100922.34;2097188;28;25134;-72
2022/11/25 02:07:06;;;;;;;;;;;;;;;4.20;100.00;100924.13;2097028;28;25263;-71
2022/11/25 02:08:09;;;;;;;;;;;;;;;4.21;100.00;100923.22;2096317;28;36715;-72
2022/11/25 02:09:14;;;;;;;;;;;;;;;4.26;100.00;100919.72;2096625;28;19983;-72
2022/11/25 02:10:21;;;;;;;;;;;;;;;4.27;100.00;100918.84;2088701;28;19921;-71
2022/11/25 02:11:27;;;;;;;;;;;;;;;4.32;100.00;100922.38;2081010;28;19977;-71
2022/11/25 02:12:30;;;;;;;;;;;;;;;4.32;100.00;100917.09;2089291;28;26666;-72
2022/11/25 02:13:32;;;;;;;;;;;;;;;4.33;100.00;100913.56;2097450;28;26310;-72
2022/11/25 02:14:34;;;;;;;;;;;;;;;4.33;100.00;100918.88;2097157;28;19990;-73
2022/11/25 02:15:36;;;;;;;;;;;;;;;4.37;100.00;100918.84;2088389;28;25411;-74
2022/11/25 02:16:37;;;;;;;;;;;;;;;4.37;100.00;100913.56;2088917;28;19924;-73
2022/11/25 02:17:42;;;;;;;;;;;;;;;4.40;100.00;100920.66;2097704;28;24421;-71
2022/11/25 02:18:44;;;;;;;;;;;;;;;4.39;100.00;100919.75;2097641;28;20690;-71
2022/11/25 02:20:09;;;;;;;;;;;;;;;4.39;100.00;100913.56;2096843;28;19932;-72
2022/11/25 02:21:16;;;;;;;;;;;;;;;4.39;100.00;100918.88;2088678;28;19984;-71
2022/11/25 02:22:30;;;;;;;;;;;;;;;4.39;100.00;100913.56;2080539;28;27647;-72
2022/11/25 02:23:53;;;;;;;;;;;;;;;4.40;100.00;100910.03;2091147;28;19924;-71
2022/11/25 02:25:02;;;;;;;;;;;;;;;4.39;100.00;100909.13;2097980;28;29076;-71
2022/11/25 02:26:04;;;;;;;;;;;;;;;4.40;100.00;100907.41;2097928;28;19925;-71
2022/11/25 02:27:06;;;;;;;;;;;;;;;4.40;100.00;100904.75;2097115;28;20725;-71
2022/11/25 02:28:18;;;;;;;;;;;;;;;4.42;100.00;100907.41;2088310;28;19933;-71
2022/11/25 02:29:19;;;;;;;;;;;;;;;4.45;100.00;100910.03;2081903;28;19921;-72
2022/11/25 02:30:23;;;;;;;;;;;;;;;4.46;100.00;100903.88;2088253;28;28542;-71
2022/11/25 02:31:25;;;;;;;;;;;;;;;4.49;100.00;100911.81;2097140;28;19921;-71
2022/11/25 02:32:27;;;;;;;;;;;;;;;4.50;100.00;100898.53;2097010;28;21895;-71
2022/11/25 02:33:29;;;;;;;;;;;;;;;4.53;100.00;100905.63;2097611;28;20838;-72
2022/11/25 02:34:30;;;;;;;;;;;;;;;4.53;100.00;100901.22;2088484;28;19920;-72
2022/11/25 02:35:33;;;;;;;;;;;;;;;4.54;100.00;100903.00;2088566;28;19920;-72
2022/11/25 02:36:35;;;;;;;;;;;;;;;4.61;100.00;100897.69;2088280;28;20921;-72
2022/11/25 02:37:37;;;;;;;;;;;;;;;4.64;100.00;100897.69;2088859;28;19917;-71
2022/11/25 02:38:44;;;;;;;;;;;;;;;4.62;100.00;100902.13;2096792;28;25417;-72
2022/11/25 02:39:50;;;;;;;;;;;;;;;4.63;100.00;100902.13;2088434;28;20154;-71
2022/11/25 02:40:59;;;;;;;;;;;;;;;4.63;100.00;100904.78;2080502;28;19925;-72
2022/11/25 02:42:01;;;;;;;;;;;;;;;4.63;100.00;100907.44;2081482;28;19917;-73
2022/11/25 02:43:03;;;;;;;;;;;;;;;4.62;100.00;100900.34;2088367;28;19921;-71
2022/11/25 02:44:05;;;;;;;;;;;;;;;4.62;100.00;100895.03;2088860;28;19933;-73
2022/11/25 02:45:11;;;;;;;;;;;;;;;4.62;100.00;100895.03;2088298;28;19935;-71
2022/11/25 02:46:17;;;;;;;;;;;;;;;4.61;100.00;100901.22;2081831;28;19926;-71
2022/11/25 02:47:22;;;;;;;;;;;;;;;4.61;100.00;100903.00;2081876;28;19925;-70
2022/11/25 02:48:28;;;;;;;;;;;;;;;4.61;100.00;100905.63;2080253;28;20834;-71
2022/11/25 02:49:49;;;;;;;;;;;;;;;4.61;100.00;100908.28;2092273;28;19982;-71
2022/11/25 02:50:51;;;;;;;;;;;;;;;4.58;100.00;100899.47;2096496;28;27532;-71
2022/11/25 02:51:53;;;;;;;;;;;;;;;4.57;100.00;100900.31;2096430;28;19921;-71
2022/11/25 02:52:54;;;;;;;;;;;;;;;4.57;100.00;100902.97;2087642;28;33140;-72
2022/11/25 02:53:59;;;;;;;;;;;;;;;4.57;100.00;100900.31;2088367;28;19928;-71
2022/11/25 02:55:01;;;;;;;;;;;;;;;4.58;100.00;100904.75;2088411;28;19921;-69
2022/11/25 02:56:04;;;;;;;;;;;;;;;4.58;100.00;100896.81;2080120;28;20896;-71
2022/11/25 02:57:05;;;;;;;;;;;;;;;4.61;100.00;100897.69;2088437;28;28156;-71
2022/11/25 02:58:09;;;;;;;;;;;;;;;4.62;100.00;100897.69;2088529;28;20009;-70
2022/11/25 02:59:15;;;;;;;;;;;;;;;4.61;100.00;100900.34;2080336;28;19921;-71
2022/11/25 03:00:17;;;;;;;;;;;;;;;4.61;100.00;100906.50;2087883;28;20019;-71
2022/11/25 03:01:19;;;;;;;;;;;;;;;4.60;100.00;100910.06;2096741;28;22512;-71
2022/11/25 03:02:23;;;;;;;;;;;;;;;4.64;100.00;100914.47;2088355;28;19920;-70
2022/11/25 03:03:25;;;;;;;;;;;;;;;4.63;100.00;100914.47;2088226;28;28402;-70
2022/11/25 03:04:26;;;;;;;;;;;;;;;4.63;100.00;100911.81;2096695;28;35161;-71
2022/11/25 03:05:29;;;;;;;;;;;;;;;4.65;100.00;100915.34;2088529;28;19979;-70
2022/11/25 03:06:33;;;;;;;;;;;;;;;4.67;100.00;100922.44;2088600;28;20733;-71
2022/11/25 03:07:35;;;;;;;;;;;;;;;4.66;100.00;100912.72;2088356;28;20852;-71
2022/11/25 03:08:37;;;;;;;;;;;;;;;4.66;100.00;100914.50;2088755;28;20006;-70
2022/11/25 03:09:42;;;;;;;;;;;;;;;4.67;100.00;100910.97;2088009;28;21052;-70
2022/11/25 03:10:45;;;;;;;;;;;;;;;4.67;100.00;100911.84;2089342;28;19928;-70
2022/11/25 03:13:09;;;;;;;;;;;;;;;4.71;100.00;100904.78;2096755;28;19924;-71
2022/11/25 03:14:13;;;;;;;;;;;;;;;4.72;100.00;100909.16;2096202;28;20007;-71
2022/11/25 03:15:18;;;;;;;;;;;;;;;4.73;100.00;100908.31;2088415;28;19987;-71
2022/11/25 03:16:19;;;;;;;;;;;;;;;4.75;100.00;100906.53;2088206;28;19921;-71
2022/11/25 03:17:21;;;;;;;;;;;;;;;4.75;100.00;100912.72;2088448;28;19916;-71
2022/11/25 03:18:23;;;;;;;;;;;;;;;4.76;100.00;100913.63;2088155;28;19925;-70
2022/11/25 03:19:24;;;;;;;;;;;;;;;4.78;100.00;100906.53;2087614;28;33847;-71
2022/11/25 03:20:26;;;;;;;;;;;;;;;4.78;100.00;100903.88;2088294;28;19925;-71
2022/11/25 03:21:28;;;;;;;;;;;;;;;4.80;100.00;100907.41;2096438;28;29228;-71
2022/11/25 03:22:30;;;;;;;;;;;;;;;4.80;100.00;100907.41;2097134;28;20019;-71
2022/11/25 03:23:32;;;;;;;;;;;;;;;4.82;100.00;100905.66;2088178;28;20029;-71
2022/11/25 03:24:34;;;;;;;;;;;;;;;4.82;100.00;100913.59;2088720;28;19931;-71
2022/11/25 03:25:39;;;;;;;;;;;;;;;4.84;100.00;100908.31;2088041;28;19925;-71
2022/11/25 03:26:41;;;;;;;;;;;;;;;4.83;100.00;100899.47;2088622;28;20051;-71
2022/11/25 03:27:43;;;;;;;;;;;;;;;4.82;100.00;100896.81;2088114;28;20167;-71
2022/11/25 03:28:44;;;;;;;;;;;;;;;4.81;100.00;100903.91;2079989;28;19952;-71
2022/11/25 03:29:48;;;;;;;;;;;;;;;4.83;100.00;100904.78;2088815;28;19924;-71
2022/11/25 03:30:50;;;;;;;;;;;;;;;4.83;100.00;100898.56;2096577;28;19920;-72
2022/11/25 03:31:52;;;;;;;;;;;;;;;4.85;100.00;100897.69;2096789;28;19979;-72
2022/11/25 03:32:55;;;;;;;;;;;;;;;4.87;100.00;100905.66;2088489;28;19928;-71
2022/11/25 03:33:59;;;;;;;;;;;;;;;4.88;100.00;100904.75;2088437;28;19991;-72
2022/11/25 03:35:00;;;;;;;;;;;;;;;4.87;100.00;100906.53;2088158;28;20729;-69
2022/11/25 03:36:02;;;;;;;;;;;;;;;4.89;100.00;100899.47;2079943;28;19969;-71
2022/11/25 03:37:05;;;;;;;;;;;;;;;4.89;100.00;100904.75;2080053;28;19977;-72
2022/11/25 03:38:07;;;;;;;;;;;;;;;4.92;100.00;100909.19;2088423;28;20825;-71
2022/11/25 03:39:13;;;;;;;;;;;;;;;4.91;100.00;100905.66;2096299;28;19924;-71
2022/11/25 03:40:15;;;;;;;;;;;;;;;4.91;100.00;100908.28;2096608;28;19927;-71
2022/11/25 03:41:18;;;;;;;;;;;;;;;4.91;100.00;100897.69;2088071;28;19959;-71
2022/11/25 03:42:19;;;;;;;;;;;;;;;4.92;100.00;100896.81;2088506;28;20004;-71
2022/11/25 03:43:21;;;;;;;;;;;;;;;4.95;100.00;100903.88;2087745;28;24064;-71
2022/11/25 03:44:23;;;;;;;;;;;;;;;4.93;100.00;100900.34;2088608;28;19925;-71
2022/11/25 03:45:28;;;;;;;;;;;;;;;4.94;100.00;100903.00;2096509;28;20046;-71
2022/11/25 03:46:32;;;;;;;;;;;;;;;4.96;100.00;100901.22;2088367;28;19986;-70
2022/11/25 03:47:37;;;;;;;;;;;;;;;4.97;100.00;100905.66;2080095;28;20794;-71
2022/11/25 03:48:42;;;;;;;;;;;;;;;4.97;100.00;100903.00;2080766;28;20044;-69
2022/11/25 03:49:44;;;;;;;;;;;;;;;5.01;100.00;100903.88;2080969;28;19917;-70
2022/11/25 03:50:47;;;;;;;;;;;;;;;5.00;100.00;100906.53;2089092;28;28806;-70
2022/11/25 03:51:48;;;;;;;;;;;;;;;4.99;100.00;100900.34;2097523;28;24277;-71
2022/11/25 03:52:52;;;;;;;;;;;;;;;5.02;100.00;100910.94;2081471;28;20103;-71
2022/11/25 03:53:53;;;;;;;;;;;;;;;5.05;100.00;100912.72;2073298;28;20844;-71
2022/11/25 03:54:56;;;;;;;;;;;;;;;5.04;100.00;100905.63;2090536;28;21113;-71
2022/11/25 03:56:02;;;;;;;;;;;;;;;5.05;100.00;100904.78;2089255;28;19947;-70
2022/11/25 03:57:03;;;;;;;;;;;;;;;5.07;100.00;100910.94;2081507;28;20011;-71
2022/11/25 03:58:07;;;;;;;;;;;;;;;5.09;100.00;100907.41;2089592;28;19921;-71
2022/11/25 03:59:08;;;;;;;;;;;;;;;5.11;100.00;100910.06;2089217;28;19925;-71
2022/11/25 04:00:13;;;;;;;;;;;;;;;5.12;100.00;100912.72;2080907;28;19917;-71
2022/11/25 04:01:31;;;;;;;;;;;;;;;5.12;100.00;100906.53;2083848;28;19925;-71
2022/11/25 04:02:33;;;;;;;;;;;;;;;5.14;100.00;100904.75;2089317;28;19925;-71
2022/11/25 04:03:34;;;;;;;;;;;;;;;5.14;100.00;100910.06;2098305;28;19932;-72
2022/11/25 04:04:36;;;;;;;;;;;;;;;5.14;100.00;100905.63;2098598;28;19917;-72
2022/11/25 04:05:38;;;;;;;;;;;;;;;5.17;100.00;100910.06;2097610;28;19917;-73
2022/11/25 04:06:41;;;;;;;;;;;;;;;5.17;100.00;100904.75;2089411;28;20038;-73
2022/11/25 04:07:43;;;;;;;;;;;;;;;5.16;100.00;100902.97;2081551;28;20726;-74
2022/11/25 04:08:45;;;;;;;;;;;;;;;5.17;100.00;100904.75;2081191;28;21146;-74
2022/11/25 04:09:47;;;;;;;;;;;;;;;5.18;100.00;100905.63;2089351;28;20051;-74
2022/11/25 04:10:52;;;;;;;;;;;;;;;5.18;100.00;100900.31;2089457;28;19929;-73
2022/11/25 04:13:31;;;;;;;;;;;;;;;5.18;100.00;100893.25;2094178;28;21255;-73
2022/11/25 04:14:32;;;;;;;;;;;;;;;5.16;100.00;100897.66;2098027;28;19932;-74
2022/11/25 04:15:35;;;;;;;;;;;;;;;5.15;100.00;100902.09;2089528;28;20687;-74
2022/11/25 04:16:36;;;;;;;;;;;;;;;5.15;100.00;100902.09;2081183;28;19917;-74
2022/11/25 04:17:38;;;;;;;;;;;;;;;5.16;100.00;100900.31;2081180;28;19925;-74
2022/11/25 04:18:40;;;;;;;;;;;;;;;5.14;100.00;100899.44;2072988;28;20799;-74
2022/11/25 04:19:41;;;;;;;;;;;;;;;5.15;100.00;100902.09;2073179;28;19921;-74
2022/11/25 04:20:44;;;;;;;;;;;;;;;5.14;100.00;100897.66;2089322;28;19928;-74
2022/11/25 04:21:46;;;;;;;;;;;;;;;5.15;100.00;100901.19;2096972;28;19928;-73
2022/11/25 04:22:52;;;;;;;;;;;;;;;5.15;100.00;100901.19;2089165;28;19921;-74
2022/11/25 04:23:55;;;;;;;;;;;;;;;5.16;100.00;100898.53;2081603;28;20798;-75
2022/11/25 04:24:57;;;;;;;;;;;;;;;5.16;100.00;100902.97;2089184;28;20695;-75
2022/11/25 04:26:00;;;;;;;;;;;;;;;5.15;100.00;100898.53;2089553;28;20721;-75
2022/11/25 04:27:10;;;;;;;;;;;;;;;5.15;100.00;100907.41;2082277;28;19925;-75
2022/11/25 04:28:12;;;;;;;;;;;;;;;5.16;100.00;100902.97;2089869;28;20798;-75
2022/11/25 04:29:14;;;;;;;;;;;;;;;5.17;100.00;100904.75;2097016;28;19921;-75
2022/11/25 04:30:17;;;;;;;;;;;;;;;5.17;100.00;100899.44;2089462;28;21164;-75
2022/11/25 04:31:18;;;;;;;;;;;;;;;5.18;100.00;100895.88;2081170;28;19925;-74
2022/11/25 04:32:20;;;;;;;;;;;;;;;5.18;100.00;100901.19;2089737;28;19928;-75
2022/11/25 04:33:22;;;;;;;;;;;;;;;5.20;100.00;100902.06;2089213;28;19998;-75
2022/11/25 04:34:24;;;;;;;;;;;;;;;5.20;100.00;100903.84;2089412;28;19925;-75
2022/11/25 04:35:27;;;;;;;;;;;;;;;5.18;100.00;100901.19;2089279;28;20002;-75
2022/11/25 04:36:28;;;;;;;;;;;;;;;5.18;100.00;100903.84;2089236;28;19928;-75
2022/11/25 04:37:30;;;;;;;;;;;;;;;5.22;100.00;100905.59;2089246;28;19921;-74
2022/11/25 04:38:32;;;;;;;;;;;;;;;5.21;100.00;100903.00;2080737;28;19925;-75
2022/11/25 04:39:35;;;;;;;;;;;;;;;5.21;100.00;100905.63;2081025;28;19977;-75
2022/11/25 04:40:46;;;;;;;;;;;;;;;5.20;100.00;100903.84;2090444;28;20840;-75
2022/11/25 04:42:30;;;;;;;;;;;;;;;5.19;100.00;100908.28;2089056;28;19921;-75
2022/11/25 04:43:13;;;;;;;;;;;;;;;5.18;100.00;100906.50;2084402;28;19925;-75
2022/11/25 04:44:23;;;;;;;;;;;;;;;5.22;100.00;100907.38;2082037;28;19913;-75
2022/11/25 04:45:27;;;;;;;;;;;;;;;5.22;100.00;100910.91;2089568;28;20762;-74
2022/11/25 04:46:39;;;;;;;;;;;;;;;5.23;100.00;100909.16;2097148;28;20070;-74
2022/11/25 04:47:41;;;;;;;;;;;;;;;5.23;100.00;100915.34;2097514;28;19924;-74
2022/11/25 04:48:43;;;;;;;;;;;;;;;5.25;100.00;100907.41;2089016;28;19999;-75
2022/11/25 04:49:44;;;;;;;;;;;;;;;5.24;100.00;100911.81;2088708;28;19920;-75
2022/11/25 04:50:46;;;;;;;;;;;;;;;5.23;100.00;100910.03;2097780;28;19932;-74
2022/11/25 04:51:47;;;;;;;;;;;;;;;5.23;100.00;100915.34;2086802;28;20068;-74
2022/11/25 04:52:49;;;;;;;;;;;;;;;5.24;100.00;100911.81;2087753;28;20717;-74
2022/11/25 04:53:52;;;;;;;;;;;;;;;5.25;100.00;100916.22;2089229;28;20048;-75
2022/11/25 04:54:55;;;;;;;;;;;;;;;5.25;100.00;100916.22;2081281;28;20694;-75
2022/11/25 04:55:58;;;;;;;;;;;;;;;5.26;100.00;100918.00;2080407;28;19918;-74
2022/11/25 04:56:59;;;;;;;;;;;;;;;5.25;100.00;100916.22;2088534;28;19921;-75
2022/11/25 04:58:02;;;;;;;;;;;;;;;5.27;100.00;100916.22;2089053;28;19917;-75
2022/11/25 05:00:27;;;;;;;;;;;;;;;5.26;100.00;100920.66;2082372;28;20010;-72
2022/11/25 05:01:31;;;;;;;;;;;;;;;5.28;100.00;100918.00;2081323;28;19975;-73
2022/11/25 05:02:44;;;;;;;;;;;;;;;5.28;100.00;100913.59;2081807;28;19926;-72
2022/11/25 05:03:52;;;;;;;;;;;;;;;5.30;100.00;100914.47;2082147;28;19933;-72
2022/11/25 05:04:59;;;;;;;;;;;;;;;5.30;100.00;100922.41;2089560;28;19925;-73
2022/11/25 05:06:06;;;;;;;;;;;;;;;5.30;100.00;100919.75;2097628;28;19917;-72
2022/11/25 05:07:10;;;;;;;;;;;;;;;5.29;100.00;100925.97;2088824;28;19921;-72
2022/11/25 05:08:13;;;;;;;;;;;;;;;5.32;100.00;100914.47;2081164;28;20035;-71
2022/11/25 05:09:15;;;;;;;;;;;;;;;5.32;100.00;100911.81;2080656;28;20691;-72
2022/11/25 05:10:18;;;;;;;;;;;;;;;5.33;100.00;100916.25;2081335;28;20877;-75
2022/11/25 05:11:22;;;;;;;;;;;;;;;5.32;100.00;100914.47;2088219;28;19921;-72
2022/11/25 05:12:27;;;;;;;;;;;;;;;5.32;100.00;100925.97;2088814;28;19925;-74
2022/11/25 05:13:29;;;;;;;;;;;;;;;5.33;100.00;100917.13;2089376;28;19920;-72
2022/11/25 05:14:31;;;;;;;;;;;;;;;5.33;100.00;100922.44;2089018;28;20722;-72
2022/11/25 05:15:33;;;;;;;;;;;;;;;5.32;100.00;100919.78;2080480;28;19925;-71
2022/11/25 05:16:38;;;;;;;;;;;;;;;5.33;100.00;100918.91;2089486;28;19917;-72
2022/11/25 05:17:42;;;;;;;;;;;;;;;5.34;100.00;100918.88;2089010;28;19992;-74
2022/11/25 05:18:43;;;;;;;;;;;;;;;5.33;100.00;100921.56;2080783;28;19926;-72
2022/11/25 05:19:46;;;;;;;;;;;;;;;5.34;100.00;100926.81;2080824;28;20039;-72
2022/11/25 05:20:48;;;;;;;;;;;;;;;5.33;100.00;100921.56;2081106;28;19921;-74
2022/11/25 05:21:54;;;;;;;;;;;;;;;5.33;100.00;100917.13;2089049;28;19920;-72
2022/11/25 05:22:56;;;;;;;;;;;;;;;5.34;100.00;100918.88;2088497;28;20705;-72
2022/11/25 05:23:58;;;;;;;;;;;;;;;5.34;100.00;100923.31;2080912;28;19925;-71
2022/11/25 05:25:04;;;;;;;;;;;;;;;5.34;100.00;100921.53;2089371;28;19929;-70
2022/11/25 05:26:09;;;;;;;;;;;;;;;5.33;100.00;100927.75;2089125;28;19921;-71
2022/11/25 05:27:15;;;;;;;;;;;;;;;5.34;100.00;100924.19;2089705;28;19925;-72
2022/11/25 05:28:17;;;;;;;;;;;;;;;5.35;100.00;100922.44;2096760;28;19974;-73
2022/11/25 05:29:18;;;;;;;;;;;;;;;5.35;100.00;100925.09;2089007;28;19928;-72
2022/11/25 05:30:20;;;;;;;;;;;;;;;5.36;100.00;100924.19;2081074;28;19921;-71
2022/11/25 05:31:22;;;;;;;;;;;;;;;5.34;100.00;100924.19;2080716;28;20047;-71
2022/11/25 05:32:26;;;;;;;;;;;;;;;5.36;100.00;100921.53;2089467;28;19978;-71
2022/11/25 05:33:32;;;;;;;;;;;;;;;5.36;100.00;100921.53;2088954;28;20032;-71
2022/11/25 05:34:33;;;;;;;;;;;;;;;5.35;100.00;100923.31;2080725;28;19926;-71
2022/11/25 05:35:36;;;;;;;;;;;;;;;5.35;100.00;100923.31;2081060;28;19921;-71